Time;durP1;ratioP1;P1;durP2;ratioP2;P2;SDS_P1;SDS_P2;PMS_P1;PMS_P2;Temp;Humidity;BMP_temperature;BMP_pressure;BME280_temperature;BME280_humidity;BME280_pressure;Samples;Min_cycle;Max_cycle;Signal;HPM_P1;HPM_P2
2022/04/21 00:01:04;;;;;;;8.77;4.77;;;11.40;27.00;;;;;;5016396;28;20404;-71
2022/04/21 00:03:29;;;;;;;7.50;4.80;;;11.40;27.00;;;;;;5012620;28;20393;-72
2022/04/21 00:05:55;;;;;;;6.20;4.70;;;11.50;26.30;;;;;;5023444;28;20505;-72
2022/04/21 00:08:20;;;;;;;7.80;4.90;;;11.40;25.90;;;;;;5026692;28;20397;-70
2022/04/21 00:10:46;;;;;;;6.17;4.80;;;11.40;26.20;;;;;;5011383;28;20984;-73
2022/04/21 00:13:12;;;;;;;5.72;4.80;;;11.30;27.20;;;;;;5016229;28;20746;-70
2022/04/21 00:15:37;;;;;;;6.43;4.95;;;11.40;26.90;;;;;;5017696;28;20396;-72
2022/04/21 00:18:03;;;;;;;10.77;5.10;;;11.30;27.60;;;;;;5018232;28;20400;-71
2022/04/21 00:20:29;;;;;;;12.83;5.13;;;11.30;28.20;;;;;;5020259;28;20455;-71
2022/04/21 00:25:38;;;;;;;7.57;4.97;;;11.20;27.40;;;;;;5007882;28;20785;-70
2022/04/21 00:28:05;;;;;;;10.93;5.07;;;11.30;26.70;;;;;;5012317;28;20437;-72
2022/04/21 00:30:31;;;;;;;10.38;4.68;;;11.20;26.80;;;;;;5011994;28;20763;-70
2022/04/21 00:32:56;;;;;;;5.90;4.90;;;11.20;27.30;;;;;;5020055;28;20409;-70
2022/04/21 00:35:22;;;;;;;6.22;4.95;;;11.20;26.70;;;;;;5018504;28;20402;-72
2022/04/21 00:37:52;;;;;;;10.02;4.93;;;11.10;28.70;;;;;;5010829;28;20440;-71
2022/04/21 00:40:19;;;;;;;6.88;5.20;;;11.20;27.80;;;;;;5016341;28;20412;-70
2022/04/21 00:42:45;;;;;;;10.35;5.00;;;11.20;28.50;;;;;;5027233;28;20402;-70
2022/04/21 00:45:11;;;;;;;7.03;4.65;;;11.20;28.30;;;;;;5012296;28;20852;-70
2022/04/21 00:47:42;;;;;;;7.95;5.28;;;11.20;28.20;;;;;;5015020;28;20425;-71
2022/04/21 00:50:13;;;;;;;8.38;4.90;;;11.20;29.20;;;;;;5016244;28;20486;-71
2022/04/21 00:52:39;;;;;;;6.68;4.95;;;11.20;28.20;;;;;;5019744;28;20995;-70
2022/04/21 00:55:07;;;;;;;7.15;5.03;;;11.20;28.50;;;;;;5017429;28;20397;-69
2022/04/21 00:57:33;;;;;;;7.45;4.80;;;11.10;28.40;;;;;;5014441;28;20760;-72
2022/04/21 01:00:00;;;;;;;8.93;5.18;;;11.10;27.70;;;;;;5011119;28;20451;-73
2022/04/21 01:05:10;;;;;;;6.85;5.00;;;11.10;28.90;;;;;;5018303;28;20465;-71
2022/04/21 01:07:37;;;;;;;8.05;4.60;;;11.10;28.30;;;;;;5017564;28;20413;-71
2022/04/21 01:10:03;;;;;;;6.60;5.00;;;11.00;28.60;;;;;;5011956;28;20454;-72
2022/04/21 01:12:30;;;;;;;12.82;5.38;;;11.00;28.90;;;;;;5021551;28;20431;-70
2022/04/21 01:14:56;;;;;;;10.48;5.20;;;11.00;28.50;;;;;;5022373;28;20394;-71
2022/04/21 01:17:34;;;;;;;12.38;5.22;;;11.10;29.40;;;;;;5018806;28;20790;-72
2022/04/21 01:20:00;;;;;;;9.65;5.00;;;11.00;28.80;;;;;;5020616;28;20884;-71
2022/04/21 01:22:26;;;;;;;7.60;5.60;;;11.10;28.40;;;;;;5026164;28;20414;-71
2022/04/21 01:24:51;;;;;;;6.40;5.25;;;10.90;28.80;;;;;;5026459;28;20409;-70
2022/04/21 01:27:17;;;;;;;9.90;5.37;;;10.90;27.70;;;;;;5019712;28;20475;-69
2022/04/21 01:29:43;;;;;;;8.75;5.25;;;10.80;29.70;;;;;;5021051;28;20399;-70
2022/04/21 01:32:09;;;;;;;7.83;5.13;;;10.80;28.20;;;;;;5019623;28;20675;-71
2022/04/21 01:34:34;;;;;;;9.67;5.00;;;11.00;28.20;;;;;;5030243;28;20395;-70
2022/04/21 01:42:28;;;;;;;6.65;5.28;;;10.90;29.80;;;;;;5029802;28;20441;-71
2022/04/21 01:44:53;;;;;;;5.77;4.60;;;10.80;29.40;;;;;;5017323;28;20408;-71
2022/04/21 01:47:19;;;;;;;9.52;5.10;;;10.90;29.30;;;;;;5017882;28;20746;-73
2022/04/21 01:49:44;;;;;;;8.68;4.70;;;10.90;29.20;;;;;;5015622;28;20401;-70
2022/04/21 01:52:10;;;;;;;10.00;5.13;;;10.80;30.40;;;;;;5017750;28;20409;-71
2022/04/21 01:54:36;;;;;;;9.13;4.50;;;10.70;30.50;;;;;;5015603;28;20429;-71
2022/04/21 01:57:01;;;;;;;7.97;5.00;;;10.70;28.20;;;;;;5022836;28;20424;-72
2022/04/21 01:59:27;;;;;;;6.53;4.70;;;10.70;28.60;;;;;;5027270;28;20480;-71
2022/04/21 02:01:52;;;;;;;8.47;5.17;;;10.70;29.90;;;;;;5018946;28;20818;-71
2022/04/21 02:04:18;;;;;;;10.00;5.00;;;10.70;28.60;;;;;;5019193;28;20859;-71
2022/04/21 02:06:43;;;;;;;6.13;5.00;;;10.80;28.10;;;;;;5017690;28;20853;-69
2022/04/21 02:09:09;;;;;;;11.23;4.80;;;10.60;28.60;;;;;;5020987;28;20887;-71
2022/04/21 02:11:34;;;;;;;6.70;4.90;;;10.50;29.80;;;;;;5022112;28;20402;-72
2022/04/21 02:14:00;;;;;;;6.37;4.77;;;10.50;29.10;;;;;;5029106;28;20401;-72
2022/04/21 02:16:25;;;;;;;7.30;5.00;;;10.40;29.60;;;;;;5021507;28;20884;-70
2022/04/21 02:18:51;;;;;;;5.38;4.70;;;10.30;29.30;;;;;;5020279;28;20404;-72
2022/04/21 02:21:16;;;;;;;7.05;5.03;;;10.30;29.90;;;;;;5015349;28;20426;-70
2022/04/21 02:23:42;;;;;;;5.00;4.50;;;10.30;30.30;;;;;;5014534;28;20623;-71
2022/04/21 02:26:07;;;;;;;8.20;5.03;;;10.20;30.10;;;;;;5012911;28;20430;-71
2022/04/21 02:28:33;;;;;;;7.87;4.70;;;10.10;30.80;;;;;;5018514;28;20445;-71
2022/04/21 02:30:59;;;;;;;6.87;5.07;;;10.00;30.80;;;;;;5019970;28;20393;-71
2022/04/21 02:33:24;;;;;;;6.17;4.87;;;9.90;31.10;;;;;;5023105;28;20387;-71
2022/04/21 02:35:50;;;;;;;8.43;4.93;;;10.00;31.90;;;;;;5016978;28;20470;-72
2022/04/21 02:38:16;;;;;;;7.53;4.90;;;10.00;32.20;;;;;;5019387;28;20400;-71
2022/04/21 02:40:43;;;;;;;10.88;5.30;;;10.00;30.60;;;;;;5028491;28;20403;-72
2022/04/21 02:43:08;;;;;;;9.30;5.70;;;10.10;30.80;;;;;;5026895;28;20919;-71
2022/04/21 02:45:35;;;;;;;10.50;5.70;;;10.20;31.00;;;;;;5016658;28;20403;-71
2022/04/21 02:48:01;;;;;;;8.55;5.70;;;10.10;31.10;;;;;;5018060;28;20486;-71
2022/04/21 02:50:26;;;;;;;10.20;5.80;;;10.00;31.50;;;;;;5014115;28;20401;-72
2022/04/21 02:52:53;;;;;;;10.40;6.20;;;9.90;32.20;;;;;;5011958;28;20433;-71
2022/04/21 02:58:04;;;;;;;9.18;6.07;;;9.90;32.90;;;;;;5013015;28;20484;-71
2022/04/21 03:00:29;;;;;;;10.17;5.90;;;9.90;32.70;;;;;;5008323;28;20463;-72
2022/04/21 03:02:56;;;;;;;11.48;6.70;;;9.70;33.70;;;;;;5017512;28;20839;-72
2022/04/21 03:05:21;;;;;;;8.23;6.20;;;9.50;34.60;;;;;;5014157;28;20481;-74
2022/04/21 03:07:47;;;;;;;10.52;6.30;;;9.50;35.10;;;;;;5019644;28;20502;-71
2022/04/21 03:10:13;;;;;;;9.80;6.47;;;9.40;35.70;;;;;;5023321;28;20422;-71
2022/04/21 03:12:39;;;;;;;9.57;5.43;;;9.60;34.30;;;;;;5020298;28;20392;-71
2022/04/21 03:15:05;;;;;;;6.47;5.43;;;9.70;33.90;;;;;;5011263;28;20459;-71
2022/04/21 03:17:30;;;;;;;14.20;5.50;;;9.80;32.70;;;;;;5014932;28;20430;-71
2022/04/21 03:19:56;;;;;;;11.57;6.68;;;9.70;32.60;;;;;;5025496;28;20446;-71
2022/04/21 03:25:10;;;;;;;8.20;5.90;;;9.70;32.50;;;;;;5015243;28;20431;-72
2022/04/21 03:27:36;;;;;;;11.65;5.80;;;9.70;32.40;;;;;;5016113;28;20415;-71
2022/04/21 03:30:05;;;;;;;8.67;5.50;;;9.50;33.40;;;;;;5014605;28;20488;-71
2022/04/21 03:32:31;;;;;;;10.18;5.95;;;9.60;32.80;;;;;;5010720;28;20411;-72
2022/04/21 03:35:00;;;;;;;10.27;6.57;;;9.60;32.60;;;;;;5016765;28;20457;-69
2022/04/21 03:37:25;;;;;;;9.27;6.35;;;9.60;32.80;;;;;;5014661;28;20454;-71
2022/04/21 03:39:51;;;;;;;7.85;6.30;;;9.60;32.80;;;;;;5013255;28;20406;-72
2022/04/21 03:42:25;;;;;;;12.05;6.90;;;9.50;33.50;;;;;;5011720;28;20428;-70
2022/04/21 03:44:51;;;;;;;12.40;6.70;;;9.50;33.50;;;;;;5018617;28;20467;-71
2022/04/21 03:47:17;;;;;;;11.82;6.90;;;9.40;33.70;;;;;;5026900;28;20462;-70
2022/04/21 03:49:43;;;;;;;10.73;7.38;;;9.40;33.90;;;;;;5028722;28;20431;-70
2022/04/21 03:52:11;;;;;;;10.35;6.90;;;9.40;34.30;;;;;;5012103;28;20406;-70
2022/04/21 03:54:38;;;;;;;10.63;7.25;;;9.40;34.00;;;;;;5021904;28;20620;-71
2022/04/21 03:57:04;;;;;;;8.63;6.87;;;9.40;34.20;;;;;;5026949;28;20399;-71
2022/04/21 03:59:30;;;;;;;12.90;7.60;;;9.40;34.70;;;;;;5015239;28;20890;-69
2022/04/21 04:02:02;;;;;;;11.73;6.90;;;9.30;34.70;;;;;;5019358;28;20419;-72
2022/04/21 04:04:31;;;;;;;13.70;7.57;;;9.40;33.80;;;;;;5020229;28;20789;-70
2022/04/21 04:12:31;;;;;;;13.75;7.80;;;9.10;35.50;;;;;;5017769;28;20504;-72
2022/04/21 04:14:57;;;;;;;10.38;7.30;;;9.00;36.60;;;;;;5022687;28;20414;-71
2022/04/21 04:17:22;;;;;;;10.45;7.68;;;9.10;36.40;;;;;;5023358;28;20398;-70
2022/04/21 04:19:48;;;;;;;15.55;7.68;;;9.10;36.10;;;;;;5012495;28;20468;-70
2022/04/21 04:22:15;;;;;;;12.43;7.65;;;9.00;36.30;;;;;;5019206;23;20428;-75
2022/04/21 04:24:41;;;;;;;11.68;7.38;;;8.90;36.90;;;;;;5009284;28;20415;-75
2022/04/21 04:27:06;;;;;;;9.47;6.70;;;8.80;37.40;;;;;;5010979;28;20486;-76
2022/04/21 04:29:32;;;;;;;11.37;8.10;;;8.80;37.70;;;;;;5006512;28;20782;-74
2022/04/21 04:32:00;;;;;;;11.37;8.10;;;8.70;38.00;;;;;;4999478;28;20410;-74
2022/04/21 04:34:26;;;;;;;10.93;7.70;;;8.50;39.30;;;;;;5008058;28;20415;-74
2022/04/21 04:36:52;;;;;;;14.10;8.40;;;8.60;39.40;;;;;;4998372;28;20477;-74
2022/04/21 04:39:17;;;;;;;10.73;7.43;;;8.60;39.00;;;;;;5007338;28;20473;-74
2022/04/21 04:44:27;;;;;;;15.13;7.93;;;8.90;37.10;;;;;;4999940;28;20424;-75
2022/04/21 04:46:53;;;;;;;13.15;8.10;;;8.80;37.40;;;;;;4992481;28;20411;-75
2022/04/21 04:49:19;;;;;;;12.13;7.77;;;8.90;36.90;;;;;;4995552;28;20436;-74
2022/04/21 04:51:44;;;;;;;10.67;7.20;;;9.10;35.80;;;;;;4995891;28;20509;-74
2022/04/21 04:54:13;;;;;;;15.13;7.80;;;9.20;35.10;;;;;;4998054;28;20420;-75
2022/04/21 04:56:40;;;;;;;12.80;7.10;;;9.10;35.40;;;;;;4993863;28;20441;-76
2022/04/21 04:59:05;;;;;;;12.90;7.80;;;9.20;34.80;;;;;;5000695;28;20486;-74
2022/04/21 05:01:41;;;;;;;11.60;7.25;;;9.20;35.40;;;;;;4998073;28;20486;-74
2022/04/21 05:04:10;;;;;;;10.73;7.60;;;9.10;35.50;;;;;;5011689;28;20403;-74
2022/04/21 05:06:40;;;;;;;11.05;7.45;;;9.20;34.70;;;;;;4999188;28;20414;-75
2022/04/21 05:09:09;;;;;;;13.68;7.35;;;9.30;34.60;;;;;;5002630;28;20429;-73
2022/04/21 05:11:35;;;;;;;15.32;7.38;;;9.40;33.70;;;;;;5003803;28;20473;-74
2022/04/21 05:14:02;;;;;;;10.45;7.07;;;9.30;34.00;;;;;;5011474;28;20421;-74
2022/04/21 05:16:28;;;;;;;14.30;7.18;;;9.40;33.20;;;;;;5005635;28;20442;-73
2022/04/21 05:18:54;;;;;;;15.48;7.40;;;9.40;33.30;;;;;;5005402;28;20891;-74
2022/04/21 05:21:20;;;;;;;9.15;6.75;;;9.40;33.10;;;;;;5010210;28;20408;-76
2022/04/21 05:23:50;;;;;;;11.23;7.30;;;9.50;32.90;;;;;;5007045;28;20430;-74
2022/04/21 05:26:16;;;;;;;8.47;7.10;;;9.40;33.00;;;;;;5007414;28;20564;-73
2022/04/21 05:28:45;;;;;;;8.52;6.85;;;9.40;33.00;;;;;;4999405;28;20414;-73
2022/04/21 05:31:11;;;;;;;10.05;7.18;;;9.50;32.50;;;;;;4996446;28;20840;-74
2022/04/21 05:33:38;;;;;;;10.35;6.80;;;9.50;32.50;;;;;;5010988;28;20487;-74
2022/04/21 05:36:04;;;;;;;16.05;7.30;;;9.60;32.20;;;;;;5007951;28;20411;-74
2022/04/21 05:38:30;;;;;;;7.93;6.32;;;9.60;32.00;;;;;;5007641;28;20409;-73
2022/04/21 05:40:56;;;;;;;10.77;6.70;;;9.70;31.30;;;;;;5008312;28;20392;-73
2022/04/21 05:43:34;;;;;;;11.00;6.88;;;9.70;31.00;;;;;;5001207;28;20408;-74
2022/04/21 05:46:00;;;;;;;13.02;6.57;;;9.70;30.70;;;;;;4997510;28;20405;-73
2022/04/21 05:48:26;;;;;;;11.87;6.13;;;9.80;30.70;;;;;;4992961;28;20799;-72
2022/04/21 05:50:53;;;;;;;10.57;6.30;;;9.80;29.90;;;;;;4998578;28;20479;-76
2022/04/21 05:53:23;;;;;;;9.45;6.15;;;9.90;29.10;;;;;;4993750;28;20899;-76
2022/04/21 05:55:50;;;;;;;10.27;6.30;;;10.00;29.00;;;;;;4995439;28;20748;-77
2022/04/21 05:58:16;;;;;;;11.90;6.22;;;10.10;34.30;;;;;;4988045;28;21000;-78
2022/04/21 06:00:41;;;;;;;8.37;6.20;;;10.20;28.60;;;;;;5002975;28;20424;-76
2022/04/21 06:03:07;;;;;;;11.67;6.97;;;10.20;28.20;;;;;;4999744;28;20408;-76
2022/04/21 06:05:33;;;;;;;10.13;6.53;;;10.30;28.20;;;;;;4990166;28;20418;-76
2022/04/21 06:07:58;;;;;;;7.65;6.45;;;10.30;27.20;;;;;;5002844;28;20623;-76
2022/04/21 06:10:24;;;;;;;10.67;6.23;;;10.40;27.40;;;;;;4995723;28;20444;-77
2022/04/21 06:12:50;;;;;;;15.10;6.80;;;10.50;26.70;;;;;;4994642;28;20485;-76
2022/04/21 06:15:16;;;;;;;10.33;6.80;;;10.60;26.10;;;;;;4993987;28;20918;-76
2022/04/21 06:17:42;;;;;;;18.42;7.07;;;10.70;25.60;;;;;;5003013;28;20406;-76
2022/04/21 06:20:09;;;;;;;13.93;6.77;;;10.70;25.10;;;;;;4994134;28;20948;-75
2022/04/21 06:22:35;;;;;;;14.52;6.70;;;10.80;25.10;;;;;;5008589;28;20517;-77
2022/04/21 06:25:01;;;;;;;12.07;7.00;;;10.90;24.60;;;;;;4996377;28;20461;-76
2022/04/21 06:27:26;;;;;;;19.10;7.00;;;11.00;24.30;;;;;;4991723;28;20420;-74
2022/04/21 06:29:52;;;;;;;14.03;6.30;;;11.00;24.20;;;;;;4998706;28;20410;-75
2022/04/21 06:32:18;;;;;;;10.47;6.67;;;11.10;23.70;;;;;;5002158;28;20418;-75
2022/04/21 06:34:44;;;;;;;12.77;6.93;;;11.20;23.90;;;;;;5002238;28;20406;-75
2022/04/21 06:37:09;;;;;;;8.95;6.50;;;11.30;23.20;;;;;;4987193;28;20905;-75
2022/04/21 06:39:35;;;;;;;11.93;7.20;;;11.30;23.40;;;;;;4991351;28;20759;-75
2022/04/21 06:42:00;;;;;;;10.10;6.60;;;11.30;24.10;;;;;;4987200;28;20424;-74
2022/04/21 06:49:54;;;;;;;19.00;11.43;;;11.80;22.30;;;;;;4998084;28;20409;-76
2022/04/21 06:52:20;;;;;;;12.23;7.38;;;11.90;22.00;;;;;;4995474;28;20407;-74
2022/04/21 06:54:45;;;;;;;14.20;7.13;;;11.90;22.30;;;;;;4997141;28;20414;-74
2022/04/21 06:57:11;;;;;;;9.60;6.60;;;12.00;23.00;;;;;;4997864;28;20406;-73
2022/04/21 06:59:37;;;;;;;11.13;6.43;;;12.10;22.20;;;;;;4988468;28;20421;-73
2022/04/21 07:02:04;;;;;;;10.93;6.55;;;12.30;23.30;;;;;;4989488;28;20407;-73
2022/04/21 07:04:30;;;;;;;9.02;6.00;;;12.30;23.10;;;;;;4990087;28;20414;-74
2022/04/21 07:06:55;;;;;;;10.50;6.00;;;12.50;22.80;;;;;;4988258;28;20422;-73
2022/04/21 07:09:21;;;;;;;10.70;6.47;;;12.40;22.60;;;;;;4991552;28;20433;-74
2022/04/21 07:11:47;;;;;;;14.13;6.10;;;12.50;23.00;;;;;;4999189;28;20383;-78
2022/04/21 07:14:12;;;;;;;10.15;6.18;;;12.60;22.70;;;;;;4996583;28;20455;-75
2022/04/21 07:16:38;;;;;;;12.57;6.30;;;12.70;24.40;;;;;;4994702;28;20795;-74
2022/04/21 07:19:04;;;;;;;9.80;6.10;;;12.70;22.90;;;;;;4995017;28;20413;-76
2022/04/21 07:21:29;;;;;;;11.93;6.50;;;12.80;22.50;;;;;;4994493;28;20979;-75
2022/04/21 07:23:55;;;;;;;15.93;6.80;;;12.80;21.70;;;;;;5003455;28;20437;-77
2022/04/21 07:26:21;;;;;;;10.07;6.50;;;12.80;22.00;;;;;;4994331;28;20425;-74
2022/04/21 07:28:47;;;;;;;8.00;6.13;;;12.90;22.00;;;;;;4996050;28;20402;-77
2022/04/21 07:31:12;;;;;;;10.13;6.67;;;12.90;22.00;;;;;;5003623;28;20407;-76
2022/04/21 07:33:38;;;;;;;7.43;5.93;;;13.00;21.30;;;;;;5003015;28;20437;-77
2022/04/21 07:36:04;;;;;;;10.50;6.73;;;13.00;21.90;;;;;;4995867;28;20410;-77
2022/04/21 07:38:31;;;;;;;12.73;6.90;;;13.10;22.60;;;;;;4997510;28;20423;-78
2022/04/21 07:40:56;;;;;;;9.70;6.50;;;13.20;22.40;;;;;;5010269;28;20432;-77
2022/04/21 07:43:22;;;;;;;12.90;7.10;;;13.30;20.70;;;;;;5022957;28;20393;-77
2022/04/21 07:45:49;;;;;;;13.80;6.45;;;13.30;21.20;;;;;;5014382;28;20392;-77
2022/04/21 07:48:15;;;;;;;11.80;6.90;;;13.30;21.30;;;;;;5001685;28;20418;-77
2022/04/21 07:50:41;;;;;;;10.63;6.50;;;13.30;22.00;;;;;;5016803;28;20417;-77
2022/04/21 07:53:15;;;;;;;8.63;5.80;;;13.40;21.20;;;;;;5008901;28;20408;-78
2022/04/21 07:55:44;;;;;;;10.38;6.30;;;13.50;21.90;;;;;;5002900;28;20413;-78
2022/04/21 07:58:10;;;;;;;9.07;6.40;;;13.60;21.30;;;;;;4995445;28;20801;-76
2022/04/21 08:00:38;;;;;;;11.73;6.00;;;13.80;20.00;;;;;;5002261;28;20419;-76
2022/04/21 08:03:05;;;;;;;10.63;6.20;;;13.90;19.30;;;;;;4997711;28;20393;-76
2022/04/21 08:05:31;;;;;;;8.80;5.70;;;14.10;18.90;;;;;;4997328;28;20414;-78
2022/04/21 08:07:58;;;;;;;7.20;5.20;;;14.20;18.30;;;;;;4992506;28;20418;-78
2022/04/21 08:10:25;;;;;;;7.57;4.15;;;14.20;17.80;;;;;;4993781;28;20413;-78
2022/04/21 08:12:53;;;;;;;8.27;4.00;;;14.30;15.30;;;;;;4996354;28;20401;-78
2022/04/21 08:15:33;;;;;;;8.35;3.53;;;14.20;14.00;;;;;;5001162;28;20404;-75
2022/04/21 08:18:03;;;;;;;5.30;3.40;;;14.20;13.20;;;;;;4995528;28;20426;-76
2022/04/21 08:20:31;;;;;;;3.85;3.20;;;14.30;13.70;;;;;;5011071;28;20410;-77
2022/04/21 08:22:57;;;;;;;7.57;4.07;;;14.30;13.50;;;;;;5025429;28;20440;-77
2022/04/21 08:33:36;;;;;;;4.45;3.55;;;14.30;13.90;;;;;;4989155;28;20452;-76
2022/04/21 08:36:03;;;;;;;4.78;4.22;;;14.60;12.60;;;;;;4987558;28;20766;-75
2022/04/21 08:38:30;;;;;;;5.78;4.00;;;14.60;13.80;;;;;;5002140;28;20766;-77
2022/04/21 08:40:57;;;;;;;6.32;3.50;;;14.70;13.90;;;;;;4998554;28;20408;-75
2022/04/21 08:43:25;;;;;;;9.77;3.80;;;14.80;12.50;;;;;;5005561;28;20412;-76
2022/04/21 08:45:51;;;;;;;6.20;3.57;;;14.90;11.70;;;;;;4995810;28;20409;-75
2022/04/21 08:48:18;;;;;;;6.20;4.00;;;15.00;11.60;;;;;;5003539;28;20446;-77
2022/04/21 08:50:44;;;;;;;6.43;3.80;;;15.10;12.00;;;;;;5002203;28;20395;-78
2022/04/21 08:53:13;;;;;;;5.10;3.58;;;15.20;12.80;;;;;;4998875;28;20989;-77
2022/04/21 08:55:39;;;;;;;6.97;3.47;;;15.30;10.10;;;;;;4986900;28;20476;-77
2022/04/21 08:58:05;;;;;;;6.13;3.80;;;15.20;9.70;;;;;;4992391;28;20405;-76
2022/04/21 09:00:31;;;;;;;7.33;3.70;;;15.10;10.50;;;;;;4999900;28;20406;-75
2022/04/21 09:02:58;;;;;;;5.60;3.90;;;15.10;9.50;;;;;;4994783;28;20943;-77
2022/04/21 09:05:28;;;;;;;5.25;3.33;;;15.10;9.80;;;;;;5000596;28;20455;-79
2022/04/21 09:07:54;;;;;;;6.68;3.60;;;15.10;11.00;;;;;;4992972;28;20513;-77
2022/04/21 09:10:20;;;;;;;6.97;3.58;;;15.20;8.10;;;;;;5004727;28;20915;-76
2022/04/21 09:12:49;;;;;;;6.05;3.50;;;15.20;8.70;;;;;;5002422;28;20424;-77
2022/04/21 09:15:17;;;;;;;8.77;3.83;;;15.30;7.90;;;;;;4994850;28;21571;-76
2022/04/21 09:17:45;;;;;;;6.50;3.95;;;15.20;8.50;;;;;;4990361;28;20494;-77
2022/04/21 09:20:12;;;;;;;7.00;3.80;;;15.10;8.90;;;;;;5007051;28;20489;-77
2022/04/21 09:22:46;;;;;;;7.55;4.20;;;15.20;9.40;;;;;;4992626;28;20521;-77
2022/04/21 09:25:11;;;;;;;4.45;3.58;;;15.30;9.60;;;;;;4996191;28;20396;-76
2022/04/21 09:27:39;;;;;;;7.43;4.15;;;15.40;10.40;;;;;;4998073;28;20776;-77
2022/04/21 09:30:10;;;;;;;7.70;4.43;;;15.50;8.80;;;;;;4994558;28;20395;-77
2022/04/21 09:32:49;;;;;;;10.40;3.70;;;15.50;9.40;;;;;;4991560;28;20410;-81
2022/04/21 09:35:15;;;;;;;4.55;3.72;;;15.60;9.60;;;;;;5004406;28;20899;-76
2022/04/21 09:37:48;;;;;;;5.60;4.03;;;15.60;9.20;;;;;;5002020;28;20406;-74
2022/04/21 09:40:19;;;;;;;6.85;4.30;;;15.60;9.10;;;;;;4997626;28;20410;-74
2022/04/21 09:42:55;;;;;;;6.47;3.90;;;15.70;9.70;;;;;;5007341;28;20409;-76
2022/04/21 09:48:32;;;;;;;6.82;3.88;;;16.00;9.20;;;;;;5002531;28;20786;-76
2022/04/21 09:51:15;;;;;;;5.80;3.20;;;16.20;9.30;;;;;;5009828;28;20403;-76
2022/04/21 09:53:49;;;;;;;5.47;3.63;;;16.30;9.00;;;;;;5007404;28;20846;-77
2022/04/21 09:56:15;;;;;;;6.60;2.90;;;16.30;7.40;;;;;;5002320;28;20432;-76
2022/04/21 09:58:42;;;;;;;4.75;3.20;;;16.40;6.90;;;;;;5000226;28;20469;-76
2022/04/21 10:01:09;;;;;;;7.10;3.28;;;16.30;8.00;;;;;;4996124;28;20414;-76
2022/04/21 10:03:35;;;;;;;5.78;3.17;;;16.40;7.50;;;;;;5002059;28;20412;-76
2022/04/21 10:06:02;;;;;;;5.05;3.63;;;16.50;7.10;;;;;;4992982;28;20429;-75
2022/04/21 10:08:29;;;;;;;7.25;3.70;;;16.50;7.50;;;;;;4987089;28;20911;-74
2022/04/21 10:10:56;;;;;;;5.63;2.90;;;16.60;5.90;;;;;;4987974;28;20410;-74
2022/04/21 10:13:22;;;;;;;6.72;2.90;;;16.40;6.00;;;;;;4994126;28;20803;-74
2022/04/21 10:15:51;;;;;;;6.45;3.30;;;16.30;6.50;;;;;;4991338;28;20422;-76
2022/04/21 10:18:17;;;;;;;3.53;2.50;;;16.30;8.20;;;;;;4992795;28;20478;-74
2022/04/21 10:20:45;;;;;;;4.55;2.53;;;16.60;6.40;;;;;;4986442;28;20410;-73
2022/04/21 10:23:16;;;;;;;3.13;2.30;;;16.90;6.60;;;;;;4994472;28;20476;-74
2022/04/21 10:25:43;;;;;;;4.72;2.42;;;17.30;4.70;;;;;;5002661;28;20398;-76
2022/04/21 10:28:37;;;;;;;12.00;2.80;;;17.50;5.00;;;;;;5002969;28;20414;-75
2022/04/21 10:31:25;;;;;;;4.55;2.80;;;17.80;4.10;;;;;;4996002;28;20394;-77
2022/04/21 10:34:05;;;;;;;6.00;2.63;;;18.10;5.10;;;;;;5001612;28;20408;-76
2022/04/21 10:36:47;;;;;;;8.82;4.28;;;18.40;4.50;;;;;;4990851;28;20419;-75
2022/04/21 10:39:18;;;;;;;7.93;3.22;;;18.40;3.70;;;;;;4992423;28;20395;-76
2022/04/21 10:41:47;;;;;;;6.25;3.30;;;18.40;3.80;;;;;;4994027;28;20916;-77
2022/04/21 10:44:25;;;;;;;5.80;3.20;;;18.30;3.90;;;;;;5000021;28;20959;-78
2022/04/21 10:47:33;;;;;;;7.30;3.20;;;18.10;3.70;;;;;;4993568;28;20525;-77
2022/04/21 10:50:19;;;;;;;6.80;3.00;;;18.20;4.20;;;;;;4991895;28;20403;-78
2022/04/21 10:58:34;;;;;;;7.60;3.30;;;18.10;5.40;;;;;;4991534;28;20449;-75
2022/04/21 11:01:14;;;;;;;5.65;3.13;;;18.10;4.60;;;;;;4988766;28;20425;-76
2022/04/21 11:03:41;;;;;;;4.45;3.28;;;18.30;6.00;;;;;;4995659;28;20505;-74
2022/04/21 11:06:14;;;;;;;11.80;3.70;;;18.50;4.70;;;;;;4990617;28;20783;-77
2022/04/21 11:08:40;;;;;;;6.22;3.40;;;18.50;4.40;;;;;;4996184;28;20397;-75
2022/04/21 11:11:06;;;;;;;16.27;3.80;;;18.50;4.90;;;;;;4994675;28;21983;-76
2022/04/21 11:13:52;;;;;;;8.07;4.25;;;18.30;5.20;;;;;;5002409;28;20405;-73
2022/04/21 11:16:57;;;;;;;8.02;3.90;;;18.40;5.40;;;;;;4999403;28;20414;-74
2022/04/21 11:19:28;;;;;;;6.60;3.65;;;18.40;6.50;;;;;;4960444;28;20448;-75
2022/04/21 11:21:55;;;;;;;8.45;4.10;;;18.20;6.00;;;;;;4949764;28;20498;-74
2022/04/21 11:24:21;;;;;;;7.45;3.88;;;18.10;5.80;;;;;;4974693;28;20426;-77
2022/04/21 11:26:57;;;;;;;12.55;4.00;;;17.80;5.70;;;;;;4995411;28;20418;-75
2022/04/21 11:29:23;;;;;;;8.85;4.43;;;17.60;7.60;;;;;;4986177;28;20506;-75
2022/04/21 11:31:53;;;;;;;8.50;4.00;;;17.50;6.90;;;;;;4987256;28;20974;-76
2022/04/21 11:34:23;;;;;;;8.60;4.00;;;17.40;7.30;;;;;;4989342;28;20410;-76
2022/04/21 11:36:52;;;;;;;9.20;4.45;;;17.30;7.60;;;;;;4990980;28;20497;-75
2022/04/21 11:39:17;;;;;;;9.27;4.65;;;17.40;7.40;;;;;;4987586;28;20428;-77
2022/04/21 11:41:52;;;;;;;7.65;4.45;;;17.40;7.50;;;;;;4986596;28;20417;-75
2022/04/21 11:44:25;;;;;;;10.00;4.57;;;17.60;8.30;;;;;;4991170;28;20414;-76
2022/04/21 11:46:50;;;;;;;5.90;4.90;;;17.80;8.20;;;;;;4987739;28;20463;-75
2022/04/21 11:49:16;;;;;;;9.20;4.70;;;17.70;8.30;;;;;;4990329;28;20410;-79
2022/04/21 11:51:43;;;;;;;8.23;4.45;;;17.50;8.90;;;;;;4991554;28;20400;-78
2022/04/21 11:54:10;;;;;;;8.38;4.63;;;17.40;8.70;;;;;;4988097;28;20555;-77
2022/04/21 11:56:37;;;;;;;9.32;4.80;;;17.10;9.80;;;;;;4988376;28;20426;-77
2022/04/21 11:59:10;;;;;;;11.53;4.60;;;16.90;10.40;;;;;;4989912;28;20420;-76
2022/04/21 12:07:09;;;;;;;7.13;4.45;;;17.50;8.60;;;;;;4987911;28;20570;-78
2022/04/21 12:09:40;;;;;;;7.72;4.10;;;17.70;9.50;;;;;;4990600;28;21006;-78
2022/04/21 12:12:07;;;;;;;5.47;4.40;;;18.00;8.80;;;;;;4989287;28;20401;-77
2022/04/21 12:14:34;;;;;;;7.63;4.75;;;18.30;8.40;;;;;;4992494;28;20412;-76
2022/04/21 12:17:01;;;;;;;9.13;4.70;;;18.60;8.50;;;;;;4990287;28;20452;-77
2022/04/21 12:19:38;;;;;;;8.80;4.90;;;18.60;7.80;;;;;;4993627;28;20410;-77
2022/04/21 12:22:19;;;;;;;6.90;4.50;;;18.70;8.30;;;;;;4992537;28;20410;-76
2022/04/21 12:24:49;;;;;;;6.47;4.07;;;18.80;8.00;;;;;;4991284;28;20421;-78
2022/04/21 12:27:15;;;;;;;14.70;6.15;;;18.60;7.30;;;;;;4990969;28;20942;-75
2022/04/21 12:30:09;;;;;;;7.73;4.73;;;18.30;8.00;;;;;;4994542;28;20406;-74
2022/04/21 12:32:38;;;;;;;7.45;4.18;;;18.90;8.10;;;;;;4992404;28;20405;-76
2022/04/21 12:35:06;;;;;;;6.65;4.50;;;19.10;7.30;;;;;;4986849;28;20512;-76
2022/04/21 12:37:42;;;;;;;8.05;4.78;;;18.80;8.80;;;;;;4993485;28;20903;-76
2022/04/21 12:40:10;;;;;;;8.70;4.40;;;19.10;8.50;;;;;;4992458;28;20406;-77
2022/04/21 12:42:38;;;;;;;10.73;4.50;;;19.30;7.70;;;;;;4990047;28;20417;-75
2022/04/21 12:45:05;;;;;;;8.00;4.68;;;19.10;8.00;;;;;;4987176;28;20418;-76
2022/04/21 12:47:41;;;;;;;5.78;4.40;;;18.80;8.40;;;;;;4984726;28;20418;-77
2022/04/21 12:50:12;;;;;;;5.75;4.40;;;18.60;8.90;;;;;;4993336;28;20490;-75
2022/04/21 12:52:44;;;;;;;5.23;4.00;;;18.50;8.70;;;;;;4989416;28;20450;-75
2022/04/21 12:55:13;;;;;;;8.60;4.50;;;18.60;8.80;;;;;;4993077;28;20715;-76
2022/04/21 12:57:39;;;;;;;6.68;4.82;;;18.60;8.50;;;;;;4991034;28;20406;-75
2022/04/21 13:00:10;;;;;;;7.88;4.72;;;18.80;8.80;;;;;;4998385;28;20475;-76
2022/04/21 13:02:36;;;;;;;14.77;5.40;;;19.10;8.80;;;;;;4985328;28;20430;-76
2022/04/21 13:05:03;;;;;;;8.02;5.05;;;19.30;8.40;;;;;;4996329;28;20425;-76
2022/04/21 13:07:29;;;;;;;7.57;4.60;;;19.50;8.90;;;;;;5009905;28;20845;-75
2022/04/21 13:09:55;;;;;;;14.02;5.30;;;19.80;7.40;;;;;;4997998;28;20400;-75
2022/04/21 13:12:20;;;;;;;7.63;5.03;;;20.20;7.70;;;;;;4993909;28;20948;-75
2022/04/21 13:14:46;;;;;;;9.53;5.53;;;20.30;8.00;;;;;;4996801;28;20904;-75
2022/04/21 13:17:11;;;;;;;8.73;5.00;;;20.20;6.70;;;;;;4995291;28;20890;-75
2022/04/21 13:19:37;;;;;;;9.43;5.05;;;19.70;8.00;;;;;;4994024;28;20413;-76
2022/04/21 13:22:03;;;;;;;8.20;4.90;;;19.50;8.70;;;;;;4990905;28;20418;-75
2022/04/21 13:24:30;;;;;;;10.25;5.85;;;19.60;8.80;;;;;;4999276;28;20757;-73
2022/04/21 13:26:59;;;;;;;7.72;5.57;;;19.90;8.70;;;;;;5005907;28;20507;-74
2022/04/21 13:29:27;;;;;;;8.77;5.78;;;20.60;7.80;;;;;;4995097;28;20410;-74
2022/04/21 13:34:54;;;;;;;11.50;5.50;;;21.40;6.50;;;;;;4948062;28;20430;-75
2022/04/21 13:37:19;;;;;;;8.97;4.73;;;22.50;5.00;;;;;;4991081;28;20497;-76
2022/04/21 13:39:45;;;;;;;7.53;5.20;;;23.00;5.10;;;;;;4993316;28;20410;-75
2022/04/21 13:42:11;;;;;;;7.88;5.20;;;23.40;2.90;;;;;;4993716;28;20515;-75
2022/04/21 13:44:36;;;;;;;7.63;5.20;;;23.30;3.40;;;;;;4997443;28;20917;-75
2022/04/21 13:47:03;;;;;;;9.25;5.20;;;22.30;4.90;;;;;;4997551;28;20751;-75